Time;durP1;ratioP1;P1;durP2;ratioP2;P2;SDS_P1;SDS_P2;PMS_P1;PMS_P2;Temp;Humidity;BMP_temperature;BMP_pressure;BME280_temperature;BME280_humidity;BME280_pressure;Samples;Min_cycle;Max_cycle;Signal;HPM_P1;HPM_P2
2023/04/25 00:01:33;;;;;;;10.13;1.38;;;6.60;99.90;;;;;;4989455;28;20403;-85
2023/04/25 00:03:59;;;;;;;5.10;0.77;;;6.60;99.90;;;;;;4971728;28;20471;-84
2023/04/25 00:06:26;;;;;;;7.97;0.98;;;6.60;99.90;;;;;;4968454;28;20032;-85
2023/04/25 00:08:55;;;;;;;7.30;1.00;;;6.60;99.90;;;;;;4988102;28;20802;-85
2023/04/25 00:11:21;;;;;;;4.55;0.60;;;6.60;99.90;;;;;;4952747;28;20121;-85
2023/04/25 00:13:48;;;;;;;4.53;0.70;;;6.50;99.90;;;;;;4971773;28;20109;-85
2023/04/25 00:16:15;;;;;;;4.65;0.80;;;6.50;99.90;;;;;;4956899;28;20046;-85
2023/04/25 00:18:42;;;;;;;9.57;1.42;;;6.50;99.90;;;;;;4975464;28;20049;-84
2023/04/25 00:21:07;;;;;;;7.97;1.10;;;6.40;99.90;;;;;;4973759;28;20026;-84
2023/04/25 00:23:35;;;;;;;9.23;0.98;;;6.30;99.90;;;;;;4958589;28;20034;-95
2023/04/25 00:26:01;;;;;;;7.35;1.00;;;6.30;99.90;;;;;;4975285;28;20034;-96
2023/04/25 00:28:26;;;;;;;6.22;0.85;;;6.30;99.90;;;;;;4968781;28;20121;-85
2023/04/25 00:30:52;;;;;;;11.38;1.65;;;6.20;99.90;;;;;;4972965;28;20034;-87
2023/04/25 00:33:18;;;;;;;5.38;1.02;;;6.20;99.90;;;;;;4975739;28;20030;-95
2023/04/25 00:35:44;;;;;;;6.25;0.80;;;6.10;99.90;;;;;;4956384;28;20093;-90
2023/04/25 00:38:09;;;;;;;10.73;1.50;;;5.90;99.90;;;;;;4957137;28;20022;-91
2023/04/25 00:40:35;;;;;;;6.20;0.70;;;5.90;99.90;;;;;;4972803;28;20042;-85
2023/04/25 00:43:01;;;;;;;7.13;1.25;;;5.80;99.90;;;;;;4975107;28;20034;-86
2023/04/25 00:45:29;;;;;;;6.05;0.60;;;5.80;99.90;;;;;;4955811;28;20042;-85
2023/04/25 00:47:55;;;;;;;4.53;0.70;;;5.80;99.90;;;;;;4972957;28;20026;-84
2023/04/25 00:50:21;;;;;;;4.45;0.68;;;5.70;99.90;;;;;;4971943;28;20031;-84
2023/04/25 00:52:47;;;;;;;8.05;0.82;;;5.70;99.90;;;;;;4974190;28;20033;-85
2023/04/25 00:55:13;;;;;;;7.03;1.63;;;5.70;99.90;;;;;;4975015;28;20446;-85
2023/04/25 00:57:40;;;;;;;6.22;0.73;;;5.70;99.90;;;;;;4955359;28;20023;-85
2023/04/25 01:00:06;;;;;;;6.45;0.93;;;5.60;99.90;;;;;;4974533;28;20049;-86
2023/04/25 01:02:33;;;;;;;5.40;0.90;;;5.70;99.90;;;;;;4972591;28;20033;-85
2023/04/25 01:04:59;;;;;;;10.02;1.08;;;5.70;99.90;;;;;;4958739;28;20027;-84
2023/04/25 01:07:25;;;;;;;8.05;1.00;;;5.70;99.90;;;;;;4958775;28;20034;-84
2023/04/25 01:09:54;;;;;;;10.75;1.63;;;5.70;99.90;;;;;;4958304;28;20415;-85
2023/04/25 01:12:20;;;;;;;5.90;0.90;;;5.80;99.90;;;;;;4958763;28;20106;-84
2023/04/25 01:14:46;;;;;;;13.18;1.77;;;5.80;99.90;;;;;;4958084;28;20043;-85
2023/04/25 01:17:12;;;;;;;9.23;1.17;;;5.80;99.90;;;;;;4954207;28;20109;-84
2023/04/25 01:19:38;;;;;;;11.18;1.38;;;5.90;99.90;;;;;;4971803;28;20539;-85
2023/04/25 01:22:04;;;;;;;9.35;1.10;;;5.90;99.90;;;;;;4974364;28;20105;-85
2023/04/25 01:24:32;;;;;;;11.23;1.35;;;5.90;99.90;;;;;;4955822;28;20065;-85
2023/04/25 01:27:00;;;;;;;12.02;1.52;;;5.90;99.90;;;;;;4956390;28;20053;-85
2023/04/25 01:29:28;;;;;;;9.27;1.42;;;5.90;99.90;;;;;;4974519;28;20501;-85
2023/04/25 01:31:55;;;;;;;7.10;1.20;;;5.90;99.90;;;;;;4955797;28;20077;-85
2023/04/25 01:34:21;;;;;;;7.22;0.98;;;5.90;99.90;;;;;;4957113;28;20486;-84
2023/04/25 01:36:50;;;;;;;9.68;1.75;;;5.90;99.90;;;;;;4973301;28;20630;-84
2023/04/25 01:39:17;;;;;;;6.65;1.10;;;5.90;99.90;;;;;;4973426;28;20463;-83
2023/04/25 01:41:45;;;;;;;4.53;1.48;;;5.80;99.90;;;;;;4973364;28;20042;-84
2023/04/25 01:44:11;;;;;;;12.05;2.28;;;5.80;99.90;;;;;;4974304;28;20391;-85
2023/04/25 01:46:37;;;;;;;13.00;1.83;;;5.80;99.90;;;;;;4934975;29;20050;-90
2023/04/25 01:49:04;;;;;;;13.18;2.05;;;5.70;99.90;;;;;;4950854;28;20023;-91
2023/04/25 01:51:33;;;;;;;9.43;1.95;;;5.70;99.90;;;;;;4936944;29;20023;-91
2023/04/25 01:54:00;;;;;;;11.52;2.38;;;5.70;99.90;;;;;;4951291;29;20031;-94
2023/04/25 01:56:30;;;;;;;7.78;1.90;;;5.70;99.90;;;;;;4933605;29;20065;-86
2023/04/25 01:58:56;;;;;;;11.48;1.50;;;5.70;99.90;;;;;;4953131;28;20031;-93
2023/04/25 02:01:37;;;;;;;11.10;2.20;;;5.70;99.90;;;;;;4935869;29;20062;-84
2023/04/25 02:04:15;;;;;;;8.27;1.98;;;5.70;99.90;;;;;;4935365;29;20083;-84
2023/04/25 02:06:41;;;;;;;9.57;2.33;;;5.60;99.90;;;;;;4951417;29;20035;-87
2023/04/25 02:09:07;;;;;;;12.13;2.55;;;5.70;99.90;;;;;;4968593;28;20038;-87
2023/04/25 02:11:33;;;;;;;13.18;1.95;;;5.70;99.90;;;;;;4950042;28;20039;-86
2023/04/25 02:14:17;;;;;;;9.30;1.88;;;5.70;99.90;;;;;;4952133;29;20499;-87
2023/04/25 02:16:52;;;;;;;8.95;1.75;;;5.70;99.90;;;;;;4951835;29;20101;-83
2023/04/25 02:19:18;;;;;;;9.88;2.28;;;5.60;99.90;;;;;;4961770;28;20160;-84
2023/04/25 02:21:43;;;;;;;11.27;2.33;;;5.70;99.90;;;;;;4932525;29;20039;-85
2023/04/25 02:24:10;;;;;;;10.20;1.90;;;5.70;99.90;;;;;;4950370;29;20372;-85
2023/04/25 02:26:36;;;;;;;12.50;1.67;;;5.70;99.90;;;;;;4948250;29;20118;-85
2023/04/25 02:29:02;;;;;;;15.43;2.40;;;5.60;99.90;;;;;;4950622;29;20032;-85
2023/04/25 02:31:27;;;;;;;11.88;1.58;;;5.60;99.90;;;;;;4964026;28;20019;-84
2023/04/25 02:33:53;;;;;;;11.50;2.15;;;5.60;99.90;;;;;;4930183;29;20066;-84
2023/04/25 02:36:19;;;;;;;12.40;2.20;;;5.70;99.90;;;;;;4950766;29;20046;-85
2023/04/25 02:38:44;;;;;;;10.60;1.70;;;5.60;99.90;;;;;;4949415;28;20031;-85
2023/04/25 02:41:10;;;;;;;13.07;2.88;;;5.70;99.90;;;;;;4950462;29;20024;-85
2023/04/25 02:43:36;;;;;;;13.18;1.75;;;5.70;99.90;;;;;;4947000;29;20087;-87
2023/04/25 02:46:01;;;;;;;12.30;2.15;;;5.70;99.90;;;;;;4978513;28;20094;-85
2023/04/25 02:48:28;;;;;;;12.27;2.05;;;5.70;99.90;;;;;;4972433;28;20026;-85
2023/04/25 02:50:54;;;;;;;14.25;1.98;;;5.70;99.90;;;;;;4973007;28;20034;-84
2023/04/25 02:53:19;;;;;;;9.70;1.33;;;5.60;99.90;;;;;;4972617;28;20052;-85
2023/04/25 02:55:49;;;;;;;11.30;1.23;;;5.60;99.90;;;;;;4971231;28;20121;-85
2023/04/25 02:58:15;;;;;;;11.77;1.65;;;5.60;99.90;;;;;;4971397;28;20530;-86
2023/04/25 03:00:47;;;;;;;6.43;1.10;;;5.50;99.90;;;;;;4962725;28;20125;-86
2023/04/25 03:03:13;;;;;;;10.48;1.63;;;5.40;99.90;;;;;;4956689;28;20497;-85
2023/04/25 03:05:39;;;;;;;10.10;1.52;;;5.40;99.90;;;;;;4955946;28;20025;-85
2023/04/25 03:08:05;;;;;;;11.10;1.95;;;5.40;99.90;;;;;;4953616;28;20061;-88
2023/04/25 03:10:32;;;;;;;11.07;1.13;;;5.40;99.90;;;;;;4954348;28;20479;-91
2023/04/25 03:13:02;;;;;;;10.90;1.30;;;5.30;99.90;;;;;;4955326;28;20080;-93
2023/04/25 03:15:28;;;;;;;9.63;1.25;;;5.30;99.90;;;;;;4972347;28;20046;-92
2023/04/25 03:17:53;;;;;;;9.90;1.42;;;5.30;99.90;;;;;;4953650;28;20027;-90
2023/04/25 03:20:19;;;;;;;5.60;1.20;;;5.20;99.90;;;;;;4952598;28;20030;-94
2023/04/25 03:22:45;;;;;;;7.32;1.10;;;5.20;99.90;;;;;;4956628;28;20045;-91
2023/04/25 03:25:11;;;;;;;10.15;1.42;;;5.20;99.90;;;;;;4957219;28;20072;-92
2023/04/25 03:27:36;;;;;;;8.48;1.13;;;5.20;99.90;;;;;;4956568;28;20114;-88
2023/04/25 03:30:02;;;;;;;7.75;1.20;;;5.20;99.90;;;;;;4954998;28;20471;-93
2023/04/25 03:32:29;;;;;;;9.98;1.65;;;5.20;99.90;;;;;;4972075;28;20027;-88
2023/04/25 03:34:55;;;;;;;15.27;1.75;;;5.20;99.90;;;;;;4953426;28;20065;-93
2023/04/25 03:37:22;;;;;;;12.07;1.55;;;5.20;99.90;;;;;;4957781;28;20080;-89
2023/04/25 03:39:48;;;;;;;13.10;1.85;;;5.20;99.90;;;;;;4953638;28;20467;-84
2023/04/25 03:42:14;;;;;;;8.65;1.70;;;5.10;99.90;;;;;;4956151;28;20079;-94
2023/04/25 03:44:39;;;;;;;8.13;1.40;;;5.10;99.90;;;;;;4955750;28;20035;-93
2023/04/25 03:47:06;;;;;;;8.75;1.58;;;5.10;99.90;;;;;;4953270;28;20034;-92
2023/04/25 03:49:32;;;;;;;10.23;1.92;;;5.10;99.90;;;;;;4953195;28;20537;-87
2023/04/25 03:52:02;;;;;;;8.88;1.77;;;5.00;99.90;;;;;;4963554;28;20085;-95
2023/04/25 03:54:34;;;;;;;11.57;1.80;;;5.00;99.90;;;;;;4975927;28;20040;-85
2023/04/25 03:57:25;;;;;;;10.32;1.67;;;5.00;99.90;;;;;;4973422;28;20034;-85
2023/04/25 03:59:52;;;;;;;12.80;1.52;;;5.00;99.90;;;;;;4960141;28;20045;-85
2023/04/25 04:02:18;;;;;;;16.85;2.60;;;5.00;99.90;;;;;;4976300;28;20034;-83
2023/04/25 04:04:44;;;;;;;13.45;2.03;;;4.90;99.90;;;;;;4951037;28;20550;-85
2023/04/25 04:07:10;;;;;;;8.05;1.65;;;4.90;99.90;;;;;;4958845;28;20030;-85
2023/04/25 04:09:39;;;;;;;12.50;2.30;;;4.80;99.90;;;;;;4957740;28;20052;-85
2023/04/25 04:12:08;;;;;;;10.63;1.98;;;4.70;99.90;;;;;;4974227;28;20022;-85
2023/04/25 04:14:36;;;;;;;13.13;1.88;;;4.60;99.90;;;;;;4955423;28;20038;-85
2023/04/25 04:17:02;;;;;;;7.78;1.00;;;4.60;99.90;;;;;;4959391;28;20022;-84
2023/04/25 04:19:28;;;;;;;9.75;1.73;;;4.60;99.90;;;;;;4973198;28;20025;-84
2023/04/25 04:22:04;;;;;;;6.60;1.50;;;4.60;99.90;;;;;;4961178;28;20093;-86
2023/04/25 04:24:30;;;;;;;9.93;1.25;;;4.50;99.90;;;;;;4956013;28;20027;-86
2023/04/25 04:27:02;;;;;;;8.00;1.30;;;4.50;99.90;;;;;;4975837;28;20100;-86
2023/04/25 04:29:33;;;;;;;13.32;1.58;;;4.40;99.90;;;;;;4975368;28;20026;-86
2023/04/25 04:32:04;;;;;;;7.35;1.58;;;4.40;99.90;;;;;;4973887;28;20034;-94
2023/04/25 04:34:31;;;;;;;10.85;1.55;;;4.40;99.90;;;;;;4975039;28;20038;-93
2023/04/25 04:36:57;;;;;;;12.00;2.53;;;4.30;99.90;;;;;;4956515;28;20050;-95
2023/04/25 04:39:23;;;;;;;10.50;2.25;;;4.30;99.90;;;;;;4975644;28;20030;-94
2023/04/25 04:42:15;;;;;;;12.60;2.45;;;4.30;99.90;;;;;;4988932;28;20066;-90
2023/04/25 04:44:54;;;;;;;10.38;2.13;;;4.40;99.90;;;;;;4971933;28;20097;-92
2023/04/25 04:47:41;;;;;;;12.65;2.10;;;4.40;99.90;;;;;;4974566;28;20579;-93
2023/04/25 04:50:32;;;;;;;8.50;2.10;;;4.40;99.90;;;;;;4975995;28;20037;-88
2023/04/25 04:53:27;;;;;;;9.95;2.63;;;4.50;99.90;;;;;;4912752;29;20036;-92
2023/04/25 04:55:58;;;;;;;12.65;3.03;;;4.50;99.90;;;;;;4913598;29;20055;-92
2023/04/25 04:58:48;;;;;;;10.27;1.70;;;4.50;99.90;;;;;;4896973;29;20044;-92
2023/04/25 05:01:37;;;;;;;11.98;2.45;;;4.60;99.90;;;;;;4898625;29;20060;-93
2023/04/25 05:04:15;;;;;;;10.55;1.63;;;4.60;99.90;;;;;;4907871;29;20043;-95
2023/04/25 05:07:13;;;;;;;11.45;2.58;;;4.70;99.90;;;;;;4860722;29;20645;-87
2023/04/25 05:09:52;;;;;;;8.02;2.03;;;4.70;99.90;;;;;;4826039;29;20087;-91
2023/04/25 05:12:50;;;;;;;15.00;2.03;;;4.70;99.90;;;;;;4836109;29;20046;-91
2023/04/25 05:15:36;;;;;;;9.15;1.77;;;4.60;99.90;;;;;;4824104;29;20165;-88
2023/04/25 05:18:18;;;;;;;5.30;0.90;;;4.60;99.90;;;;;;4832415;29;20498;-89
2023/04/25 05:20:46;;;;;;;6.97;1.15;;;4.70;99.90;;;;;;4832043;29;20038;-91
2023/04/25 05:23:35;;;;;;;4.85;0.90;;;4.70;99.90;;;;;;4828669;29;20065;-92
2023/04/25 05:26:30;;;;;;;6.85;1.13;;;4.70;99.90;;;;;;4811245;29;20104;-86
2023/04/25 05:29:03;;;;;;;7.37;0.90;;;4.80;99.90;;;;;;4840553;29;20467;-92
2023/04/25 05:31:37;;;;;;;2.88;0.60;;;4.80;99.90;;;;;;4840373;29;20029;-86
2023/04/25 05:34:20;;;;;;;4.35;0.60;;;4.80;99.90;;;;;;4860034;29;20043;-86
2023/04/25 05:37:01;;;;;;;3.05;0.73;;;4.80;99.90;;;;;;4859235;29;20045;-85
2023/04/25 05:39:28;;;;;;;6.75;1.23;;;4.80;99.90;;;;;;4879363;29;20037;-87
2023/04/25 05:42:06;;;;;;;5.70;1.45;;;4.80;99.90;;;;;;4862340;29;20060;-86
2023/04/25 05:44:50;;;;;;;6.85;1.23;;;4.70;99.90;;;;;;4888640;29;21181;-85
2023/04/25 05:47:34;;;;;;;7.30;1.23;;;4.80;99.90;;;;;;4901853;28;20771;-86
2023/04/25 05:50:11;;;;;;;5.47;0.88;;;4.90;99.90;;;;;;4944220;28;20054;-86
2023/04/25 05:52:47;;;;;;;8.52;1.00;;;4.90;99.90;;;;;;4943247;28;20062;-88
2023/04/25 05:55:33;;;;;;;6.10;0.80;;;4.90;99.90;;;;;;4949647;28;20049;-87
2023/04/25 05:58:02;;;;;;;7.80;1.20;;;4.90;99.90;;;;;;4957453;28;20089;-89
2023/04/25 06:00:28;;;;;;;7.15;1.35;;;5.00;99.90;;;;;;4941393;28;20603;-89
2023/04/25 06:02:54;;;;;;;10.10;0.90;;;5.00;99.90;;;;;;4956916;28;20388;-87
2023/04/25 06:05:20;;;;;;;6.60;1.15;;;5.10;99.90;;;;;;4955974;28;20057;-87
2023/04/25 06:07:46;;;;;;;12.00;1.33;;;5.10;99.90;;;;;;4942965;28;20030;-91
2023/04/25 06:10:13;;;;;;;9.05;1.17;;;5.10;99.90;;;;;;4958542;28;20502;-88
2023/04/25 06:12:39;;;;;;;8.13;1.00;;;5.20;99.90;;;;;;4948451;28;20026;-88
2023/04/25 06:15:05;;;;;;;6.05;1.05;;;5.30;99.90;;;;;;4957876;28;20077;-87
2023/04/25 06:17:31;;;;;;;4.85;0.68;;;5.30;99.90;;;;;;4948056;28;20053;-96
2023/04/25 06:19:57;;;;;;;5.60;0.50;;;5.40;99.90;;;;;;4940323;28;20037;-86
2023/04/25 06:22:23;;;;;;;6.28;0.50;;;5.40;99.90;;;;;;4953234;28;20037;-84
2023/04/25 06:24:50;;;;;;;4.78;0.40;;;5.40;99.90;;;;;;4949096;28;20058;-88
2023/04/25 06:27:16;;;;;;;4.47;0.40;;;5.50;99.90;;;;;;4957434;28;20172;-88
2023/04/25 06:29:41;;;;;;;4.43;0.40;;;5.50;99.90;;;;;;4957600;28;20054;-88
2023/04/25 06:32:07;;;;;;;5.68;1.08;;;5.60;99.90;;;;;;4974227;28;20387;-86
2023/04/25 06:34:33;;;;;;;3.20;0.50;;;5.70;99.90;;;;;;4942502;28;20038;-89
2023/04/25 06:36:59;;;;;;;3.90;0.40;;;5.70;99.90;;;;;;4940923;28;20442;-89
2023/04/25 06:39:25;;;;;;;4.13;0.40;;;5.80;99.90;;;;;;4942367;28;20034;-87
2023/04/25 06:41:53;;;;;;;4.15;0.30;;;5.80;99.90;;;;;;4940990;28;20040;-86
2023/04/25 06:44:48;;;;;;;2.88;0.30;;;5.80;99.90;;;;;;4957836;28;20133;-86
2023/04/25 06:47:14;;;;;;;3.90;0.40;;;5.90;99.90;;;;;;4941282;28;20034;-88
2023/04/25 06:49:41;;;;;;;2.47;0.32;;;5.90;99.90;;;;;;4940288;28;20050;-88
2023/04/25 06:52:08;;;;;;;3.50;0.40;;;5.90;99.90;;;;;;4965169;28;20119;-86
2023/04/25 06:54:34;;;;;;;4.05;0.30;;;5.90;99.90;;;;;;4956972;28;20055;-89
2023/04/25 06:57:06;;;;;;;7.10;0.50;;;6.00;99.90;;;;;;4958638;28;20042;-90
2023/04/25 06:59:32;;;;;;;4.15;0.43;;;6.00;99.90;;;;;;4957440;28;20084;-87
2023/04/25 07:01:58;;;;;;;5.60;0.40;;;6.10;99.90;;;;;;4960095;28;20447;-87
2023/04/25 07:04:25;;;;;;;2.55;0.40;;;6.00;99.90;;;;;;4958862;28;20034;-85
2023/04/25 07:06:54;;;;;;;2.90;0.50;;;6.00;99.90;;;;;;4941139;28;20041;-83
2023/04/25 07:09:27;;;;;;;4.50;0.60;;;6.00;99.90;;;;;;4959264;28;20101;-88
2023/04/25 07:11:54;;;;;;;2.83;0.30;;;6.10;99.90;;;;;;4961401;28;20030;-87
2023/04/25 07:14:20;;;;;;;4.22;0.77;;;6.40;99.90;;;;;;4961844;28;20031;-93
2023/04/25 07:16:46;;;;;;;5.60;0.60;;;6.60;99.90;;;;;;4957609;28;20041;-86
2023/04/25 07:19:12;;;;;;;2.22;0.35;;;6.80;99.90;;;;;;4960733;28;20569;-88
2023/04/25 07:21:37;;;;;;;6.40;0.50;;;6.90;99.90;;;;;;4946200;28;20094;-87
2023/04/25 07:24:05;;;;;;;6.45;0.43;;;6.80;99.90;;;;;;4958932;28;20026;-90
2023/04/25 07:26:34;;;;;;;4.07;0.40;;;7.00;99.90;;;;;;4959754;28;20062;-91
2023/04/25 07:29:16;;;;;;;7.55;0.40;;;7.00;99.90;;;;;;4961250;28;20046;-90
2023/04/25 07:31:42;;;;;;;4.53;0.30;;;6.90;99.90;;;;;;4944617;28;20038;-89
2023/04/25 07:34:07;;;;;;;1.80;0.20;;;7.10;99.90;;;;;;4961603;28;20518;-90
2023/04/25 07:36:34;;;;;;;1.45;0.20;;;7.10;99.90;;;;;;4942983;28;20511;-90
2023/04/25 07:39:00;;;;;;;5.55;0.30;;;7.10;99.90;;;;;;4961305;28;20046;-93
2023/04/25 07:41:29;;;;;;;5.38;0.30;;;7.10;99.90;;;;;;4959330;28;20374;-89
2023/04/25 07:43:54;;;;;;;6.10;0.68;;;7.40;99.90;;;;;;4960646;28;20030;-89
2023/04/25 07:46:20;;;;;;;3.95;0.35;;;7.80;99.90;;;;;;4943966;28;20061;-90
2023/04/25 07:48:46;;;;;;;5.53;0.38;;;7.90;99.90;;;;;;4938894;28;20538;-88
2023/04/25 07:51:12;;;;;;;4.63;0.38;;;8.10;99.90;;;;;;4944565;28;20584;-90
2023/04/25 07:53:40;;;;;;;3.35;0.30;;;8.50;99.90;;;;;;4943754;28;20041;-90
2023/04/25 07:56:10;;;;;;;4.95;1.23;;;8.40;99.90;;;;;;4957413;28;20229;-90
2023/04/25 07:58:39;;;;;;;5.35;0.68;;;8.60;99.90;;;;;;4958744;28;20337;-90
2023/04/25 08:01:07;;;;;;;6.53;0.38;;;8.70;99.90;;;;;;4958060;28;20030;-88
2023/04/25 08:03:53;;;;;;;9.43;0.40;;;8.70;99.90;;;;;;4947296;28;20045;-91
2023/04/25 08:06:42;;;;;;;4.03;0.30;;;8.40;99.90;;;;;;4962087;28;20687;-91
2023/04/25 08:09:15;;;;;;;5.65;0.45;;;8.20;99.90;;;;;;4946738;28;20468;-90
2023/04/25 08:11:41;;;;;;;3.63;0.30;;;8.40;99.90;;;;;;4937815;28;20049;-88
2023/04/25 08:14:09;;;;;;;7.25;1.15;;;8.30;99.90;;;;;;4943676;28;20042;-89
2023/04/25 08:16:36;;;;;;;4.55;0.50;;;8.50;99.90;;;;;;4958265;28;20046;-89
2023/04/25 08:19:02;;;;;;;4.50;0.47;;;8.90;99.90;;;;;;4943659;28;20129;-90
2023/04/25 08:21:31;;;;;;;5.20;0.50;;;8.80;99.90;;;;;;4959506;28;20344;-90
2023/04/25 08:24:00;;;;;;;6.93;0.70;;;8.50;99.90;;;;;;4944249;28;20491;-89
2023/04/25 08:26:29;;;;;;;7.20;0.60;;;8.50;99.90;;;;;;4957649;28;20037;-91
2023/04/25 08:28:55;;;;;;;8.75;0.63;;;8.70;99.90;;;;;;4943688;28;20537;-91
2023/04/25 08:31:21;;;;;;;7.40;0.65;;;8.90;99.90;;;;;;4936757;28;20031;-89
2023/04/25 08:33:54;;;;;;;5.55;0.50;;;8.70;99.90;;;;;;4957342;28;20042;-88
2023/04/25 08:36:42;;;;;;;5.85;0.60;;;8.50;99.90;;;;;;4944655;28;20511;-92
2023/04/25 08:39:37;;;;;;;3.40;0.40;;;8.50;99.90;;;;;;4947715;28;20034;-90
2023/04/25 08:42:37;;;;;;;7.07;0.50;;;8.30;99.90;;;;;;4935020;29;20082;-88
2023/04/25 08:45:04;;;;;;;3.30;0.30;;;8.20;99.90;;;;;;4935784;29;20154;-91
2023/04/25 08:47:36;;;;;;;3.78;0.40;;;8.30;99.90;;;;;;4912016;29;20398;-92
2023/04/25 08:50:03;;;;;;;8.27;0.43;;;8.50;99.90;;;;;;4911416;29;20027;-92
2023/04/25 08:52:35;;;;;;;5.57;0.35;;;8.50;99.90;;;;;;4919431;29;20043;-91
2023/04/25 08:55:01;;;;;;;3.50;0.40;;;8.60;99.90;;;;;;4913304;29;20141;-92
2023/04/25 08:57:29;;;;;;;8.88;0.43;;;8.60;99.90;;;;;;4918851;29;20034;-92
2023/04/25 08:59:57;;;;;;;2.97;0.30;;;8.40;99.90;;;;;;4928925;29;20039;-90
2023/04/25 09:02:24;;;;;;;2.65;0.22;;;8.60;99.90;;;;;;4916008;29;20039;-90
2023/04/25 09:04:54;;;;;;;2.58;0.20;;;8.30;99.90;;;;;;4936832;29;20117;-91
2023/04/25 09:07:21;;;;;;;4.22;0.20;;;8.50;99.90;;;;;;4911593;29;20060;-89
2023/04/25 09:09:47;;;;;;;2.55;0.20;;;8.80;99.90;;;;;;4919759;29;20031;-91
2023/04/25 09:12:19;;;;;;;1.75;0.10;;;8.80;99.90;;;;;;4936005;29;20130;-92
2023/04/25 09:15:11;;;;;;;1.40;0.10;;;9.00;99.90;;;;;;4926680;29;20047;-89
2023/04/25 09:17:59;;;;;;;0.88;0.10;;;9.00;99.90;;;;;;4934483;28;20047;-88
2023/04/25 09:20:30;;;;;;;2.05;0.10;;;9.30;99.90;;;;;;4958494;28;20517;-89
2023/04/25 09:23:03;;;;;;;2.20;0.20;;;8.90;99.90;;;;;;4951632;28;20084;-89
2023/04/25 09:25:38;;;;;;;1.75;0.20;;;8.70;99.90;;;;;;4959579;28;20561;-89
2023/04/25 09:28:06;;;;;;;1.92;0.20;;;8.60;99.90;;;;;;4942491;28;20042;-90
2023/04/25 09:30:36;;;;;;;2.13;0.20;;;9.30;99.90;;;;;;4942806;28;20559;-90
2023/04/25 09:33:15;;;;;;;3.53;0.20;;;9.30;99.90;;;;;;4959027;28;20111;-91
2023/04/25 09:35:46;;;;;;;3.35;0.30;;;9.60;99.90;;;;;;4941478;28;20120;-92
2023/04/25 09:38:24;;;;;;;2.72;0.30;;;9.40;99.90;;;;;;4944701;28;20026;-91
2023/04/25 09:41:00;;;;;;;2.53;0.20;;;9.10;99.90;;;;;;4943473;28;20026;-92
2023/04/25 09:43:58;;;;;;;4.60;0.22;;;9.00;99.90;;;;;;4959746;28;20042;-90
2023/04/25 09:46:33;;;;;;;4.63;0.57;;;9.30;99.90;;;;;;4941274;28;20058;-89
2023/04/25 09:49:06;;;;;;;2.13;0.20;;;9.00;99.90;;;;;;4958879;28;20033;-88
2023/04/25 09:51:40;;;;;;;2.92;0.20;;;8.80;99.90;;;;;;4957964;28;20056;-89
2023/04/25 09:54:06;;;;;;;3.38;0.20;;;9.00;99.90;;;;;;4950023;28;20662;-90
2023/04/25 09:56:42;;;;;;;4.00;0.30;;;9.50;99.90;;;;;;4956671;28;20046;-89
2023/04/25 09:59:11;;;;;;;1.75;0.30;;;9.50;99.90;;;;;;4942482;28;20113;-88
2023/04/25 10:01:42;;;;;;;3.45;0.28;;;10.30;99.90;;;;;;4957735;28;20049;-89
2023/04/25 10:04:25;;;;;;;2.05;0.28;;;9.80;99.90;;;;;;4958280;28;20030;-93
2023/04/25 10:07:15;;;;;;;3.20;0.20;;;10.10;99.90;;;;;;4960794;28;20034;-90
2023/04/25 10:09:49;;;;;;;3.53;0.20;;;10.00;99.90;;;;;;4959125;28;20030;-89
2023/04/25 10:12:16;;;;;;;2.38;0.20;;;9.60;99.90;;;;;;4958777;28;20102;-87
2023/04/25 10:14:42;;;;;;;6.97;0.45;;;10.00;99.90;;;;;;4957521;28;20136;-88
2023/04/25 10:17:11;;;;;;;4.28;0.30;;;10.10;99.90;;;;;;4948042;28;20474;-86
2023/04/25 10:19:37;;;;;;;5.00;0.30;;;10.10;99.90;;;;;;4941613;28;20487;-88
2023/04/25 10:22:14;;;;;;;4.80;0.30;;;10.40;99.90;;;;;;4957607;28;20899;-85
2023/04/25 10:24:40;;;;;;;4.47;0.35;;;10.30;99.90;;;;;;4958296;28;20116;-88
2023/04/25 10:27:07;;;;;;;2.55;0.45;;;10.50;99.90;;;;;;4957106;28;20463;-87
2023/04/25 10:29:36;;;;;;;1.80;0.20;;;10.70;99.90;;;;;;4957126;28;20030;-89
2023/04/25 10:32:02;;;;;;;3.90;0.20;;;10.70;99.90;;;;;;4940983;28;20050;-88
2023/04/25 10:34:39;;;;;;;2.63;0.13;;;10.40;99.90;;;;;;4940224;28;20045;-89
2023/04/25 10:37:08;;;;;;;2.65;0.45;;;10.80;99.90;;;;;;4956232;28;20102;-87
2023/04/25 10:39:37;;;;;;;3.22;0.20;;;10.80;99.90;;;;;;4958330;28;20513;-86
2023/04/25 10:42:03;;;;;;;2.65;0.20;;;11.30;99.90;;;;;;4957542;28;20049;-88
2023/04/25 10:44:30;;;;;;;2.72;0.10;;;11.30;99.90;;;;;;4945656;28;20043;-87
2023/04/25 10:46:59;;;;;;;3.50;0.20;;;10.90;99.90;;;;;;4960560;28;20073;-89
2023/04/25 10:49:32;;;;;;;3.60;0.20;;;10.30;99.90;;;;;;4954790;28;20484;-90
2023/04/25 10:52:24;;;;;;;5.32;0.20;;;10.10;99.90;;;;;;4969678;28;20535;-90
2023/04/25 10:54:55;;;;;;;2.53;0.20;;;10.20;99.90;;;;;;4956190;28;20039;-89
2023/04/25 10:57:45;;;;;;;6.45;0.30;;;10.10;99.90;;;;;;4969405;28;20039;-88
2023/04/25 11:00:17;;;;;;;3.83;0.40;;;10.00;99.90;;;;;;4939737;28;21377;-92
2023/04/25 11:02:44;;;;;;;3.97;0.40;;;9.30;99.90;;;;;;4952058;28;20060;-90
2023/04/25 11:05:21;;;;;;;5.03;0.30;;;8.80;99.90;;;;;;4958195;28;20476;-89
2023/04/25 11:07:54;;;;;;;4.45;0.25;;;8.60;99.90;;;;;;4953471;28;20110;-92
2023/04/25 11:10:20;;;;;;;5.82;0.20;;;8.20;99.90;;;;;;4938542;28;20034;-91
2023/04/25 11:12:47;;;;;;;2.03;0.20;;;8.00;99.90;;;;;;4954143;28;20065;-90
2023/04/25 11:15:18;;;;;;;4.63;0.20;;;8.30;99.90;;;;;;4954786;28;20047;-89
2023/04/25 11:17:46;;;;;;;2.72;0.65;;;8.10;99.90;;;;;;4953334;28;20054;-89
2023/04/25 11:20:15;;;;;;;3.50;0.45;;;8.10;99.90;;;;;;4953331;28;20567;-87
2023/04/25 11:22:41;;;;;;;3.85;0.40;;;8.20;99.90;;;;;;4953748;28;20050;-91
2023/04/25 11:25:19;;;;;;;6.60;0.40;;;8.40;99.90;;;;;;4953939;28;20035;-89
2023/04/25 11:28:01;;;;;;;2.47;0.20;;;8.60;99.90;;;;;;4953793;28;20813;-89
2023/04/25 11:30:30;;;;;;;3.35;0.25;;;8.60;99.90;;;;;;4970539;28;20034;-89
2023/04/25 11:32:58;;;;;;;4.18;0.20;;;8.80;99.90;;;;;;4953497;28;20043;-89
2023/04/25 11:35:25;;;;;;;2.13;0.40;;;9.10;99.90;;;;;;4954074;28;20050;-89
2023/04/25 11:37:51;;;;;;;3.83;0.40;;;9.50;99.90;;;;;;4953146;28;20035;-86
2023/04/25 11:40:22;;;;;;;2.45;0.20;;;9.80;99.90;;;;;;4954305;28;20045;-87
2023/04/25 11:42:48;;;;;;;1.73;0.20;;;9.70;99.90;;;;;;4919096;28;20825;-90
2023/04/25 11:45:14;;;;;;;3.95;0.30;;;9.40;99.90;;;;;;4927518;28;20346;-87
2023/04/25 11:47:40;;;;;;;1.75;0.10;;;9.60;99.90;;;;;;4926139;28;20039;-90
2023/04/25 11:50:07;;;;;;;3.88;0.20;;;9.60;99.90;;;;;;4945070;28;20109;-85
2023/04/25 11:52:41;;;;;;;3.03;0.20;;;9.90;99.90;;;;;;4943570;28;20049;-90
2023/04/25 11:55:14;;;;;;;5.35;0.20;;;10.10;99.90;;;;;;4944184;28;20046;-86
2023/04/25 11:57:40;;;;;;;3.33;0.20;;;10.10;99.90;;;;;;4958331;28;20141;-90
2023/04/25 12:00:13;;;;;;;0.95;0.13;;;10.00;99.90;;;;;;4936510;28;20499;-87
2023/04/25 12:02:47;;;;;;;1.52;0.10;;;10.70;99.90;;;;;;4942774;28;20085;-88
2023/04/25 12:05:17;;;;;;;1.15;0.10;;;11.00;99.90;;;;;;4944831;28;20125;-87
2023/04/25 12:07:44;;;;;;;1.67;0.10;;;11.10;99.90;;;;;;4942577;28;20176;-87
2023/04/25 12:10:12;;;;;;;2.00;0.20;;;10.90;99.90;;;;;;4955656;28;20058;-87
2023/04/25 12:12:41;;;;;;;2.60;0.20;;;10.60;99.90;;;;;;4945259;28;20507;-91
2023/04/25 12:15:22;;;;;;;3.92;0.28;;;11.00;99.90;;;;;;4947150;28;20065;-94
2023/04/25 12:17:53;;;;;;;4.38;0.20;;;10.90;99.90;;;;;;4944975;28;20118;-87
2023/04/25 12:20:23;;;;;;;0.95;0.10;;;10.30;99.90;;;;;;4947747;28;20411;-88
2023/04/25 12:22:50;;;;;;;3.08;0.22;;;10.10;99.90;;;;;;4939212;28;20126;-86
2023/04/25 12:25:38;;;;;;;1.83;0.13;;;10.20;99.90;;;;;;4946829;28;20518;-88
2023/04/25 12:28:23;;;;;;;3.60;0.20;;;11.20;99.90;;;;;;4964573;28;20035;-90
2023/04/25 12:30:55;;;;;;;4.30;0.20;;;11.70;99.90;;;;;;4946458;28;20027;-90
2023/04/25 12:33:22;;;;;;;4.78;0.20;;;11.20;99.90;;;;;;4963110;28;20129;-94
2023/04/25 12:35:48;;;;;;;2.15;0.20;;;10.90;99.90;;;;;;4948798;28;20162;-88
2023/04/25 12:38:29;;;;;;;5.07;0.28;;;10.30;99.90;;;;;;4947827;28;20332;-89
2023/04/25 12:40:55;;;;;;;2.67;0.30;;;9.30;99.90;;;;;;4958294;28;20475;-93
2023/04/25 12:43:21;;;;;;;4.68;0.30;;;8.80;99.90;;;;;;4929324;28;20046;-90
2023/04/25 12:45:52;;;;;;;3.10;0.30;;;8.50;99.90;;;;;;4956805;28;20090;-84
2023/04/25 12:48:18;;;;;;;3.55;0.30;;;8.50;99.90;;;;;;4957106;28;20034;-87
2023/04/25 12:50:44;;;;;;;4.10;0.30;;;8.50;99.90;;;;;;4957185;28;20551;-86
2023/04/25 12:53:11;;;;;;;3.03;0.20;;;8.50;99.90;;;;;;4958083;28;20042;-89
2023/04/25 12:55:37;;;;;;;3.58;0.30;;;8.40;99.90;;;;;;4957580;28;20130;-87
2023/04/25 12:58:03;;;;;;;4.93;0.20;;;8.40;99.90;;;;;;4957876;28;20030;-84
2023/04/25 13:00:31;;;;;;;2.85;0.20;;;8.40;99.90;;;;;;4959882;28;20031;-90
2023/04/25 13:02:57;;;;;;;3.15;0.30;;;8.70;99.90;;;;;;4964364;28;20098;-94
2023/04/25 13:05:23;;;;;;;3.05;0.20;;;8.80;99.90;;;;;;4969002;28;20118;-96
2023/04/25 13:07:49;;;;;;;6.40;0.40;;;8.90;99.90;;;;;;4948021;28;20057;-87
2023/04/25 13:10:14;;;;;;;2.88;0.28;;;9.10;99.90;;;;;;4962351;28;20142;-91